Terminal Aerodrome Forecast
Issued by NWS

Home | Current Version | Previous Version | Text Only | Print | Product List | Glossary On
Versions: 1 2 3 4 5 6 7 8 9 10 11 12 13 14 15
000
FTUS42 KMLB 222334
TAFTIX
TAF
KTIX 222334Z 2300/2324 11008KT P6SM -SHRA SCT010 BKN070 OVC100
      TEMPO 2300/2303 3SM SHRA BR BKN015
     FM230300 15012KT P6SM -RA SCT012 BKN020
      TEMPO 2303/2306 3SM SHRA BKN012 OVC020
     FM230600 06009KT P6SM -RA VCSH SCT008 BKN015
      TEMPO 2309/2313 3SM SHRA BKN008
     FM231400 04007KT P6SM VCSH BKN020 BKN035
      TEMPO 2314/2318 3SM SHRA BKN012
     FM231800 03012G21KT P6SM SCT015 BKN040
      AMD NOT SKED 2302/2312=

USA.gov is the U.S. government's official web portal to all federal, state and local government web resources and services.